Airfield :
LOGIN :

Register | Disclaimer

   EN    FR    IT 

 










Legend :    VFR   Marginal VFR   IFR   Intensive IFR   Very Intensive IFR
Visi :
Ceiling :
>= 8 km
>= 3000ft
5 to 8 km
1000 to 3000 ft
1500m to 5 km
500 to 1000 ft
800 to 1500m
200 to 500 ft
< 800m
< 200 ft
Symbols :   Thunderstorms  Fog  Heavy snow  Heavy precipitations  Wind > 20 kt
SIGMETs :     Misc.  Thunderstorms  Icing  Turbulence  Mountain Waves  Volcanic Ashes






- Airport Elevation : 1708 ft
- IATA code : SJJ


LQSA - Sarajevo

CURRENT METAR :
  • 260530Z 31005KT 3000 SN FEW012 BKN035 M01/M01 Q1007

EXPIRED METARs :
  • 260400Z 30007KT 4000 -SN FEW010 BKN035 M01/M01 Q1006

TAF TAF LQSA
Valid from the 26 at 06:00 until the 27 at 06:00 UTC


260550Z 2606/2706 34006KT 6000 -SN FEW015 BKN040 TX00/2612Z TNM03/2703Z
TEMPO 2606/2609 2000 SN BKN012 OVC030
TEMPO 2610/2615 28012KT
TEMPO 2615/2619 3000 SN BKN012 OVC030



MET'MAP, your aeronautical weather chart ! - Copyright ORBIFLY December 2007 - Disclaimer

ORBIFLY MET'MAP TEAM :

Programming & Development : Alexandra Zaïnal
Concept & original design : Baudouin d'Aumeries
Assistance for programming : Marc-Olivier Méhu
Technical & hardware support : Manuel Goepfert

Contact : metmap@orbifly.com




SOURCES & CREDITS :

   NOAA